Renderfarm Status:OK
Avg Time Per Frame:15 min/frame
Total Users Today:40
Total CPU Time Today:2311.25 Hours
Total Frames Waiting:931
Today's CPU Champion:lvuill20 / 17 days 3 hr
Active Jobs
Job User Frames Renderer Total CPU Average Start End Status
58584 dohail20 100 houdini 0 Hours 0 min 02/20 10:08 PM Ready
58583 kczern20 50 houdini 0 Hours 0 min 02/20 10:02 PM Ready
58582 bnelms20 96 houdini 0 Hours 0 min 02/20 09:52 PM Ready
58581 slauin21 20 arnold 0 Hours 0 min 02/20 09:46 PM Ready
58580 ehanno21 100 arnold 0 Hours 0 min 02/20 09:40 PM Ready
58579 yuclin20 72 houdini 0 Hours 0 min 02/20 09:32 PM Ready
58578 rclark26 80 arnold 0 Hours 0 min 02/20 09:31 PM Ready
58577 hsjost20 72 arnold 0 Hours 0 min 02/20 09:21 PM Ready
58576 meckle20 72 houdini 0 Hours 0 min 02/20 08:39 PM Ready
58575 shexie20 100 arnold 0 Hours 0 min 02/20 08:36 PM Ready
58574 acline22 100 arnold 0 Hours 0 min 02/20 08:29 PM Ready
58573 jrutle20 50 arnold 0 Hours 0 min 02/20 08:24 PM Rendering
58572 cbrook29 100 arnold 2.23 Hours 13.4 min 02/20 08:21 PM Rendering
58570 lvuill20 100 arnold 0 Hours 0 min 02/20 07:31 PM Rendering
58402 momall20 45 htoa 0 Hours 0 min 02/19 04:46 PM Ready
Completed Jobs
Job User Frames Renderer Total CPU Average Start End Speedup Status
58571 kczern20 50 houdini 7.04 Hours 8.5 min 02/20 08:16 PM 02/20 09:59 PM 4.1x Complete!
58569 efaria20 1 houdini 0.68 Hours 41.1 min 02/20 06:59 PM 02/20 10:06 PM 0.2x Complete!
58568 bnelms20 96 houdini 3.41 Hours 2.1 min 02/20 06:51 PM 02/20 09:30 PM 1.3x Complete!
58567 efaria20 5 houdini 0 Hours 0 min 02/20 06:48 PM 02/20 06:58 PM 0x Complete!
58566 yuclin20 74 houdini 1.17 Hours 0.9 min 02/20 06:41 PM 02/20 09:25 PM 0.4x Complete!
58565 ehanno21 100 arnold 12.95 Hours 7.8 min 02/20 06:31 PM 02/20 09:33 PM 4.3x Complete!
58564 jhenni21 66 houdini 7.89 Hours 7.2 min 02/20 06:26 PM 02/20 09:30 PM 2.6x Complete!
58563 yuclin20 72 houdini 0 Hours 0 min 02/20 06:18 PM 02/20 06:27 PM 0x Complete!
58562 hsjost20 72 arnold 4.25 Hours 3.5 min 02/20 06:15 PM 02/20 09:07 PM 1.5x Complete!
58561 rclark26 100 arnold 15.05 Hours 9 min 02/20 06:00 PM 02/20 09:06 PM 4.8x Complete!
58560 taaych20 87 rman 13.7 Hours 9.5 min 02/20 05:52 PM 02/20 08:42 PM 4.8x Complete!
58559 kczern20 50 houdini 7.09 Hours 8.5 min 02/20 05:44 PM 02/20 08:16 PM 2.8x Complete!
58558 botili20 100 houdini 11.41 Hours 6.8 min 02/20 05:12 PM 02/20 09:52 PM 2.4x Complete!
58557 cbrook29 100 arnold 18.73 Hours 11.2 min 02/20 05:06 PM 02/20 08:12 PM 6x Complete!
58556 dnewso20 3 houdini 0 Hours 0.1 min 02/20 05:01 PM 02/20 06:55 PM 0x Complete!
58555 dohail20 100 houdini 45.99 Hours 27.6 min 02/20 04:27 PM 02/20 08:17 PM 12x Complete!
58554 rjustu20 80 arnold 34.9 Hours 26.2 min 02/20 04:18 PM 02/20 07:27 PM 11.1x Complete!
58553 nmende21 99 arnold 3.88 Hours 2.4 min 02/20 04:08 PM 02/20 06:39 PM 1.6x Complete!
58552 efaria20 5 houdini 0.96 Hours 11.5 min 02/20 03:53 PM 02/20 06:37 PM 0.4x Complete!
58551 meckle20 65 houdini 2.11 Hours 1.9 min 02/20 03:48 PM 02/20 06:24 PM 0.8x Complete!
58550 slauin21 100 arnold 0.4 Hours 0.2 min 02/20 03:28 PM 02/20 06:15 PM 0.1x Complete!
58549 bnelms20 96 houdini 0 Hours 0 min 02/20 03:23 PM 02/20 05:37 PM 0x Complete!
58548 hsjost20 72 arnold 0.34 Hours 0.3 min 02/20 02:54 PM 02/20 06:12 PM 0.1x Complete!
58547 shexie20 40 arnold 28.71 Hours 43.1 min 02/20 02:50 PM 02/20 08:21 PM 5.2x Complete!
58546 meckle20 11 houdini 0.88 Hours 4.8 min 02/20 02:49 PM 02/20 03:46 PM 0.9x Complete!
58545 lvuill20 100 arnold 126.37 Hours 75.8 min 02/20 02:35 PM 02/20 07:13 PM 27.3x Complete!
58544 shuang23 100 houdini 0 Hours 0 min 02/20 02:29 PM 02/20 05:12 PM 0x Complete!
58543 efaria20 9 houdini 1.48 Hours 9.9 min 02/20 02:28 PM 02/20 02:53 PM 3.6x Complete!
58542 botili20 100 houdini 3.75 Hours 3.4 min 02/20 02:28 PM 02/20 04:28 PM 1.9x Complete!
58541 hsjost20 72 arnold 1.12 Hours 0.9 min 02/20 02:11 PM 02/20 02:19 PM 9.3x Complete!
58540 yuclin20 48 houdini 3.06 Hours 3.8 min 02/20 02:11 PM 02/20 02:19 PM 22.4x Complete!
58539 shexie20 40 arnold 6.59 Hours 9.9 min 02/20 02:09 PM 02/20 02:46 PM 10.7x Complete!
58538 rclark26 81 arnold 3.37 Hours 2.5 min 02/20 02:02 PM 02/20 02:11 PM 23x Complete!
58537 hsjost20 72 arnold 0.61 Hours 0.5 min 02/20 02:00 PM 02/20 02:02 PM 16.9x Complete!
58536 cburns25 60 arnold 0.19 Hours 0.2 min 02/20 01:47 PM 02/20 01:48 PM 14.9x Complete!
58535 cburns25 100 arnold 0.34 Hours 0.2 min 02/20 01:46 PM 02/20 01:46 PM 21.4x Complete!
58534 cburns25 100 arnold 0.33 Hours 0.2 min 02/20 01:44 PM 02/20 01:45 PM 22.7x Complete!
58533 cburns25 100 arnold 0.33 Hours 0.2 min 02/20 01:39 PM 02/20 01:40 PM 10.8x Complete!
58532 cburns25 60 arnold 0.58 Hours 0.6 min 02/20 01:26 PM 02/20 01:27 PM 26.9x Complete!
58531 jwhite48 26 arnold 0.92 Hours 2.1 min 02/20 01:22 PM 02/20 01:25 PM 20.2x Complete!
58530 rjustu20 17 arnold 6.46 Hours 22.8 min 02/20 01:22 PM 02/20 02:37 PM 5.2x Complete!
58529 cburns25 100 arnold 0.86 Hours 0.5 min 02/20 01:19 PM 02/20 01:20 PM 31.6x Complete!
58528 meckle20 100 houdini 0.08 Hours 0 min 02/20 01:17 PM 02/20 01:18 PM 3.2x Complete!
58527 jwhite48 100 arnold 2.58 Hours 1.5 min 02/20 01:14 PM 02/20 01:20 PM 26.3x Complete!
58526 cburns25 100 arnold 0.96 Hours 0.6 min 02/20 01:14 PM 02/20 01:16 PM 27.8x Complete!
58525 hsjost20 72 arnold 0.41 Hours 0.3 min 02/20 01:11 PM 02/20 01:12 PM 19.6x Complete!
58524 ehanno21 16 arnold 0.75 Hours 2.8 min 02/20 01:07 PM 02/20 01:10 PM 14.2x Complete!
58523 chtsoi20 73 arnold 26.4 Hours 21.7 min 02/20 12:55 PM 02/20 01:29 PM 45.5x Complete!
58522 cburns25 100 arnold 0.9 Hours 0.5 min 02/20 12:54 PM 02/20 12:57 PM 16.3x Complete!
58521 rclark26 100 arnold 4.05 Hours 2.4 min 02/20 12:53 PM 02/20 01:03 PM 25.3x Complete!
Copyright 2014 Savannah College of Art and Design